sensor_id;sensor_type;location;lat;lon;timestamp;P1;durP1;ratioP1;P2;durP2;ratioP2
18879;SDS011;9572;52.378;13.404;2022-11-20T00:00:16;16.83;;;9.63;;
18879;SDS011;9572;52.378;13.404;2022-11-20T00:02:43;20.07;;;10.10;;
18879;SDS011;9572;52.378;13.404;2022-11-20T00:05:10;19.90;;;10.13;;
18879;SDS011;9572;52.378;13.404;2022-11-20T00:07:37;18.07;;;10.13;;
18879;SDS011;9572;52.378;13.404;2022-11-20T00:10:06;18.53;;;10.57;;
18879;SDS011;9572;52.378;13.404;2022-11-20T00:12:33;16.47;;;9.50;;
18879;SDS011;9572;52.378;13.404;2022-11-20T00:15:00;15.63;;;9.60;;
18879;SDS011;9572;52.378;13.404;2022-11-20T00:17:27;16.87;;;9.97;;
18879;SDS011;9572;52.378;13.404;2022-11-20T00:19:54;14.87;;;9.33;;
18879;SDS011;9572;52.378;13.404;2022-11-20T00:22:21;19.70;;;9.33;;
18879;SDS011;9572;52.378;13.404;2022-11-20T00:24:48;16.63;;;10.00;;
18879;SDS011;9572;52.378;13.404;2022-11-20T00:27:16;18.23;;;10.60;;
18879;SDS011;9572;52.378;13.404;2022-11-20T00:29:43;17.90;;;9.57;;
18879;SDS011;9572;52.378;13.404;2022-11-20T00:32:10;16.57;;;9.73;;
18879;SDS011;9572;52.378;13.404;2022-11-20T00:34:37;15.40;;;8.80;;
18879;SDS011;9572;52.378;13.404;2022-11-20T00:37:04;17.50;;;10.20;;
18879;SDS011;9572;52.378;13.404;2022-11-20T00:39:31;19.50;;;10.13;;
18879;SDS011;9572;52.378;13.404;2022-11-20T00:41:58;18.93;;;9.87;;
18879;SDS011;9572;52.378;13.404;2022-11-20T00:44:26;21.23;;;11.03;;
18879;SDS011;9572;52.378;13.404;2022-11-20T00:46:53;16.00;;;9.40;;
18879;SDS011;9572;52.378;13.404;2022-11-20T00:49:20;16.30;;;10.13;;
18879;SDS011;9572;52.378;13.404;2022-11-20T00:51:47;22.10;;;10.47;;
18879;SDS011;9572;52.378;13.404;2022-11-20T00:54:13;21.13;;;9.80;;
18879;SDS011;9572;52.378;13.404;2022-11-20T00:56:40;19.10;;;9.77;;
18879;SDS011;9572;52.378;13.404;2022-11-20T00:59:08;19.07;;;9.17;;
18879;SDS011;9572;52.378;13.404;2022-11-20T01:01:37;16.67;;;9.07;;
18879;SDS011;9572;52.378;13.404;2022-11-20T01:04:04;16.07;;;9.30;;
18879;SDS011;9572;52.378;13.404;2022-11-20T01:06:32;18.97;;;9.33;;
18879;SDS011;9572;52.378;13.404;2022-11-20T01:09:01;17.00;;;9.00;;
18879;SDS011;9572;52.378;13.404;2022-11-20T01:11:30;17.23;;;9.60;;
18879;SDS011;9572;52.378;13.404;2022-11-20T01:13:58;19.40;;;10.03;;
18879;SDS011;9572;52.378;13.404;2022-11-20T01:16:26;16.57;;;9.13;;
18879;SDS011;9572;52.378;13.404;2022-11-20T01:18:57;14.97;;;9.07;;
18879;SDS011;9572;52.378;13.404;2022-11-20T01:21:26;17.17;;;9.10;;
18879;SDS011;9572;52.378;13.404;2022-11-20T01:23:55;18.57;;;10.00;;
18879;SDS011;9572;52.378;13.404;2022-11-20T01:26:23;17.10;;;9.43;;
18879;SDS011;9572;52.378;13.404;2022-11-20T01:28:52;16.30;;;9.40;;
18879;SDS011;9572;52.378;13.404;2022-11-20T01:31:20;17.60;;;9.37;;
18879;SDS011;9572;52.378;13.404;2022-11-20T01:33:49;16.17;;;9.70;;
18879;SDS011;9572;52.378;13.404;2022-11-20T01:36:19;20.60;;;9.70;;
18879;SDS011;9572;52.378;13.404;2022-11-20T01:38:47;15.83;;;9.23;;
18879;SDS011;9572;52.378;13.404;2022-11-20T01:41:17;15.00;;;9.13;;
18879;SDS011;9572;52.378;13.404;2022-11-20T01:43:58;16.80;;;9.33;;
18879;SDS011;9572;52.378;13.404;2022-11-20T01:46:26;15.23;;;8.97;;
18879;SDS011;9572;52.378;13.404;2022-11-20T01:48:53;15.27;;;9.03;;
18879;SDS011;9572;52.378;13.404;2022-11-20T01:51:25;17.03;;;9.90;;
18879;SDS011;9572;52.378;13.404;2022-11-20T01:53:57;17.23;;;9.70;;
18879;SDS011;9572;52.378;13.404;2022-11-20T01:56:27;16.53;;;9.10;;
18879;SDS011;9572;52.378;13.404;2022-11-20T01:58:58;17.83;;;10.03;;
18879;SDS011;9572;52.378;13.404;2022-11-20T02:01:27;19.43;;;9.93;;
18879;SDS011;9572;52.378;13.404;2022-11-20T02:03:54;18.43;;;9.63;;
18879;SDS011;9572;52.378;13.404;2022-11-20T02:06:23;17.13;;;8.93;;
18879;SDS011;9572;52.378;13.404;2022-11-20T02:08:53;17.30;;;9.70;;
18879;SDS011;9572;52.378;13.404;2022-11-20T02:11:21;16.07;;;8.87;;
18879;SDS011;9572;52.378;13.404;2022-11-20T02:13:48;16.47;;;9.10;;
18879;SDS011;9572;52.378;13.404;2022-11-20T02:16:19;16.37;;;8.97;;
18879;SDS011;9572;52.378;13.404;2022-11-20T02:18:49;18.23;;;9.80;;
18879;SDS011;9572;52.378;13.404;2022-11-20T02:21:19;16.67;;;9.53;;
18879;SDS011;9572;52.378;13.404;2022-11-20T02:23:56;19.57;;;10.37;;
18879;SDS011;9572;52.378;13.404;2022-11-20T02:26:28;18.10;;;9.93;;
18879;SDS011;9572;52.378;13.404;2022-11-20T02:28:57;17.50;;;9.80;;
18879;SDS011;9572;52.378;13.404;2022-11-20T02:31:26;19.67;;;9.90;;
18879;SDS011;9572;52.378;13.404;2022-11-20T02:33:56;17.63;;;9.57;;
18879;SDS011;9572;52.378;13.404;2022-11-20T02:36:23;18.50;;;9.97;;
18879;SDS011;9572;52.378;13.404;2022-11-20T02:38:53;15.77;;;9.37;;
18879;SDS011;9572;52.378;13.404;2022-11-20T02:41:21;17.40;;;9.73;;
18879;SDS011;9572;52.378;13.404;2022-11-20T02:43:56;15.90;;;9.03;;
18879;SDS011;9572;52.378;13.404;2022-11-20T02:46:23;15.27;;;9.53;;
18879;SDS011;9572;52.378;13.404;2022-11-20T02:48:50;20.27;;;9.60;;
18879;SDS011;9572;52.378;13.404;2022-11-20T02:51:16;18.10;;;9.77;;
18879;SDS011;9572;52.378;13.404;2022-11-20T02:53:44;18.20;;;9.47;;
18879;SDS011;9572;52.378;13.404;2022-11-20T02:56:10;16.47;;;9.87;;
18879;SDS011;9572;52.378;13.404;2022-11-20T02:58:39;16.07;;;9.07;;
18879;SDS011;9572;52.378;13.404;2022-11-20T03:01:06;19.30;;;10.10;;
18879;SDS011;9572;52.378;13.404;2022-11-20T03:03:32;17.13;;;9.37;;
18879;SDS011;9572;52.378;13.404;2022-11-20T03:05:59;15.27;;;9.20;;
18879;SDS011;9572;52.378;13.404;2022-11-20T03:08:26;15.33;;;8.70;;
18879;SDS011;9572;52.378;13.404;2022-11-20T03:10:53;14.90;;;9.27;;
18879;SDS011;9572;52.378;13.404;2022-11-20T03:13:20;17.27;;;9.80;;
18879;SDS011;9572;52.378;13.404;2022-11-20T03:15:49;16.93;;;9.47;;
18879;SDS011;9572;52.378;13.404;2022-11-20T03:18:15;16.47;;;9.53;;
18879;SDS011;9572;52.378;13.404;2022-11-20T03:20:42;17.20;;;9.23;;
18879;SDS011;9572;52.378;13.404;2022-11-20T03:23:09;19.47;;;10.00;;
18879;SDS011;9572;52.378;13.404;2022-11-20T03:25:36;20.23;;;10.00;;
18879;SDS011;9572;52.378;13.404;2022-11-20T03:28:03;17.40;;;9.57;;
18879;SDS011;9572;52.378;13.404;2022-11-20T03:30:30;18.97;;;9.43;;
18879;SDS011;9572;52.378;13.404;2022-11-20T03:32:59;17.70;;;9.97;;
18879;SDS011;9572;52.378;13.404;2022-11-20T03:35:25;18.17;;;10.43;;
18879;SDS011;9572;52.378;13.404;2022-11-20T03:37:52;17.17;;;9.50;;
18879;SDS011;9572;52.378;13.404;2022-11-20T03:40:19;17.30;;;8.73;;
18879;SDS011;9572;52.378;13.404;2022-11-20T03:42:46;16.43;;;9.70;;
18879;SDS011;9572;52.378;13.404;2022-11-20T03:45:13;17.90;;;9.77;;
18879;SDS011;9572;52.378;13.404;2022-11-20T03:47:42;19.60;;;10.17;;
18879;SDS011;9572;52.378;13.404;2022-11-20T03:50:11;16.70;;;9.43;;
18879;SDS011;9572;52.378;13.404;2022-11-20T03:52:39;18.23;;;10.10;;
18879;SDS011;9572;52.378;13.404;2022-11-20T03:55:06;18.97;;;9.23;;
18879;SDS011;9572;52.378;13.404;2022-11-20T03:57:34;17.20;;;9.30;;
18879;SDS011;9572;52.378;13.404;2022-11-20T04:00:01;17.50;;;10.20;;
18879;SDS011;9572;52.378;13.404;2022-11-20T04:02:29;20.30;;;10.20;;
18879;SDS011;9572;52.378;13.404;2022-11-20T04:04:56;19.17;;;10.57;;
18879;SDS011;9572;52.378;13.404;2022-11-20T04:07:24;18.47;;;10.70;;
18879;SDS011;9572;52.378;13.404;2022-11-20T04:09:51;18.97;;;10.63;;
18879;SDS011;9572;52.378;13.404;2022-11-20T04:12:18;21.03;;;10.87;;
18879;SDS011;9572;52.378;13.404;2022-11-20T04:14:45;19.37;;;11.23;;
18879;SDS011;9572;52.378;13.404;2022-11-20T04:17:12;24.37;;;12.13;;
18879;SDS011;9572;52.378;13.404;2022-11-20T04:19:38;23.57;;;12.07;;
18879;SDS011;9572;52.378;13.404;2022-11-20T04:22:05;18.90;;;11.20;;
18879;SDS011;9572;52.378;13.404;2022-11-20T04:24:34;17.77;;;10.40;;
18879;SDS011;9572;52.378;13.404;2022-11-20T04:27:01;18.03;;;10.10;;
18879;SDS011;9572;52.378;13.404;2022-11-20T04:29:28;18.37;;;10.13;;
18879;SDS011;9572;52.378;13.404;2022-11-20T04:31:55;18.27;;;10.43;;
18879;SDS011;9572;52.378;13.404;2022-11-20T04:34:22;17.83;;;10.20;;
18879;SDS011;9572;52.378;13.404;2022-11-20T04:36:49;17.83;;;9.67;;
18879;SDS011;9572;52.378;13.404;2022-11-20T04:39:16;19.47;;;9.83;;
18879;SDS011;9572;52.378;13.404;2022-11-20T04:41:44;17.10;;;9.97;;
18879;SDS011;9572;52.378;13.404;2022-11-20T04:44:11;18.50;;;9.80;;
18879;SDS011;9572;52.378;13.404;2022-11-20T04:46:39;17.30;;;10.37;;
18879;SDS011;9572;52.378;13.404;2022-11-20T04:49:07;17.80;;;10.10;;
18879;SDS011;9572;52.378;13.404;2022-11-20T04:51:35;19.20;;;10.37;;
18879;SDS011;9572;52.378;13.404;2022-11-20T04:54:02;22.90;;;11.30;;
18879;SDS011;9572;52.378;13.404;2022-11-20T04:56:29;26.53;;;12.27;;
18879;SDS011;9572;52.378;13.404;2022-11-20T04:59:01;22.67;;;12.33;;
18879;SDS011;9572;52.378;13.404;2022-11-20T05:01:28;20.07;;;11.33;;
18879;SDS011;9572;52.378;13.404;2022-11-20T05:03:56;22.57;;;11.07;;
18879;SDS011;9572;52.378;13.404;2022-11-20T05:06:23;19.50;;;10.83;;
18879;SDS011;9572;52.378;13.404;2022-11-20T05:08:50;18.93;;;10.77;;
18879;SDS011;9572;52.378;13.404;2022-11-20T05:11:19;18.43;;;10.50;;
18879;SDS011;9572;52.378;13.404;2022-11-20T05:13:46;16.33;;;9.47;;
18879;SDS011;9572;52.378;13.404;2022-11-20T05:16:16;20.07;;;10.23;;
18879;SDS011;9572;52.378;13.404;2022-11-20T05:18:43;18.87;;;10.63;;
18879;SDS011;9572;52.378;13.404;2022-11-20T05:21:11;21.57;;;11.67;;
18879;SDS011;9572;52.378;13.404;2022-11-20T05:23:39;24.17;;;12.30;;
18879;SDS011;9572;52.378;13.404;2022-11-20T05:26:06;27.03;;;13.60;;
18879;SDS011;9572;52.378;13.404;2022-11-20T05:28:34;26.87;;;14.27;;
18879;SDS011;9572;52.378;13.404;2022-11-20T05:31:05;27.17;;;12.80;;
18879;SDS011;9572;52.378;13.404;2022-11-20T05:33:34;19.57;;;10.50;;
18879;SDS011;9572;52.378;13.404;2022-11-20T05:36:02;24.37;;;11.47;;
18879;SDS011;9572;52.378;13.404;2022-11-20T05:38:30;20.47;;;10.77;;
18879;SDS011;9572;52.378;13.404;2022-11-20T05:41:02;17.60;;;10.00;;
18879;SDS011;9572;52.378;13.404;2022-11-20T05:43:31;21.13;;;10.40;;
18879;SDS011;9572;52.378;13.404;2022-11-20T05:45:58;20.53;;;10.47;;
18879;SDS011;9572;52.378;13.404;2022-11-20T05:48:26;18.90;;;10.73;;
18879;SDS011;9572;52.378;13.404;2022-11-20T05:50:54;21.70;;;10.17;;
18879;SDS011;9572;52.378;13.404;2022-11-20T05:53:23;19.60;;;10.53;;
18879;SDS011;9572;52.378;13.404;2022-11-20T05:55:56;18.03;;;10.17;;
18879;SDS011;9572;52.378;13.404;2022-11-20T05:58:23;18.17;;;9.53;;
18879;SDS011;9572;52.378;13.404;2022-11-20T06:00:50;20.10;;;10.23;;
18879;SDS011;9572;52.378;13.404;2022-11-20T06:03:17;19.13;;;10.60;;
18879;SDS011;9572;52.378;13.404;2022-11-20T06:05:44;18.97;;;10.43;;
18879;SDS011;9572;52.378;13.404;2022-11-20T06:08:12;18.47;;;10.23;;
18879;SDS011;9572;52.378;13.404;2022-11-20T06:10:39;22.07;;;10.70;;
18879;SDS011;9572;52.378;13.404;2022-11-20T06:13:06;18.43;;;9.73;;
18879;SDS011;9572;52.378;13.404;2022-11-20T06:15:33;21.70;;;10.87;;
18879;SDS011;9572;52.378;13.404;2022-11-20T06:18:00;20.17;;;10.70;;
18879;SDS011;9572;52.378;13.404;2022-11-20T06:20:27;16.03;;;9.70;;
18879;SDS011;9572;52.378;13.404;2022-11-20T06:22:55;17.93;;;9.83;;
18879;SDS011;9572;52.378;13.404;2022-11-20T06:25:24;23.10;;;10.80;;
18879;SDS011;9572;52.378;13.404;2022-11-20T06:27:50;16.87;;;9.60;;
18879;SDS011;9572;52.378;13.404;2022-11-20T06:30:18;18.10;;;10.57;;
18879;SDS011;9572;52.378;13.404;2022-11-20T06:32:45;18.17;;;9.80;;
18879;SDS011;9572;52.378;13.404;2022-11-20T06:35:12;21.20;;;9.83;;
18879;SDS011;9572;52.378;13.404;2022-11-20T06:37:39;18.50;;;10.33;;
18879;SDS011;9572;52.378;13.404;2022-11-20T06:40:07;19.17;;;10.10;;
18879;SDS011;9572;52.378;13.404;2022-11-20T06:42:36;18.97;;;10.07;;
18879;SDS011;9572;52.378;13.404;2022-11-20T06:45:03;16.90;;;9.67;;
18879;SDS011;9572;52.378;13.404;2022-11-20T06:47:31;16.33;;;9.30;;
18879;SDS011;9572;52.378;13.404;2022-11-20T06:49:58;19.27;;;10.93;;
18879;SDS011;9572;52.378;13.404;2022-11-20T06:52:25;18.17;;;9.83;;
18879;SDS011;9572;52.378;13.404;2022-11-20T06:54:53;19.73;;;9.97;;
18879;SDS011;9572;52.378;13.404;2022-11-20T06:57:20;17.77;;;9.63;;
18879;SDS011;9572;52.378;13.404;2022-11-20T06:59:48;26.57;;;10.93;;
18879;SDS011;9572;52.378;13.404;2022-11-20T07:02:15;19.93;;;10.60;;
18879;SDS011;9572;52.378;13.404;2022-11-20T07:04:42;18.47;;;10.33;;
18879;SDS011;9572;52.378;13.404;2022-11-20T07:07:09;21.43;;;9.93;;
18879;SDS011;9572;52.378;13.404;2022-11-20T07:09:36;24.23;;;10.83;;
18879;SDS011;9572;52.378;13.404;2022-11-20T07:12:04;21.00;;;10.67;;
18879;SDS011;9572;52.378;13.404;2022-11-20T07:14:31;19.87;;;10.20;;
18879;SDS011;9572;52.378;13.404;2022-11-20T07:17:00;19.93;;;10.70;;
18879;SDS011;9572;52.378;13.404;2022-11-20T07:19:27;19.27;;;11.13;;
18879;SDS011;9572;52.378;13.404;2022-11-20T07:21:54;21.80;;;10.83;;
18879;SDS011;9572;52.378;13.404;2022-11-20T07:24:21;21.60;;;11.17;;
18879;SDS011;9572;52.378;13.404;2022-11-20T07:26:47;22.50;;;11.03;;
18879;SDS011;9572;52.378;13.404;2022-11-20T07:29:15;22.33;;;11.13;;
18879;SDS011;9572;52.378;13.404;2022-11-20T07:31:42;18.93;;;10.77;;
18879;SDS011;9572;52.378;13.404;2022-11-20T07:34:11;19.07;;;10.97;;
18879;SDS011;9572;52.378;13.404;2022-11-20T07:36:38;22.13;;;12.03;;
18879;SDS011;9572;52.378;13.404;2022-11-20T07:39:05;18.57;;;10.67;;
18879;SDS011;9572;52.378;13.404;2022-11-20T07:41:32;21.17;;;11.17;;
18879;SDS011;9572;52.378;13.404;2022-11-20T07:43:59;21.53;;;11.53;;
18879;SDS011;9572;52.378;13.404;2022-11-20T07:46:26;22.10;;;11.93;;
18879;SDS011;9572;52.378;13.404;2022-11-20T07:48:53;22.73;;;11.43;;
18879;SDS011;9572;52.378;13.404;2022-11-20T07:51:22;21.90;;;11.83;;
18879;SDS011;9572;52.378;13.404;2022-11-20T07:53:52;22.83;;;11.97;;
18879;SDS011;9572;52.378;13.404;2022-11-20T07:56:19;23.47;;;11.97;;
18879;SDS011;9572;52.378;13.404;2022-11-20T07:58:46;21.47;;;12.23;;
18879;SDS011;9572;52.378;13.404;2022-11-20T08:01:13;24.30;;;11.87;;
18879;SDS011;9572;52.378;13.404;2022-11-20T08:03:40;24.07;;;12.63;;
18879;SDS011;9572;52.378;13.404;2022-11-20T08:06:07;26.97;;;12.33;;
18879;SDS011;9572;52.378;13.404;2022-11-20T08:08:36;20.17;;;11.90;;
18879;SDS011;9572;52.378;13.404;2022-11-20T08:11:04;22.53;;;11.80;;
18879;SDS011;9572;52.378;13.404;2022-11-20T08:13:49;21.53;;;11.67;;
18879;SDS011;9572;52.378;13.404;2022-11-20T08:16:33;24.43;;;12.20;;
18879;SDS011;9572;52.378;13.404;2022-11-20T08:19:00;20.13;;;11.73;;
18879;SDS011;9572;52.378;13.404;2022-11-20T08:21:27;23.10;;;11.77;;
18879;SDS011;9572;52.378;13.404;2022-11-20T08:23:55;25.53;;;11.70;;
18879;SDS011;9572;52.378;13.404;2022-11-20T08:26:23;19.87;;;10.20;;
18879;SDS011;9572;52.378;13.404;2022-11-20T08:28:52;18.40;;;10.53;;
18879;SDS011;9572;52.378;13.404;2022-11-20T08:31:20;20.40;;;10.23;;
18879;SDS011;9572;52.378;13.404;2022-11-20T08:33:47;21.43;;;11.33;;
18879;SDS011;9572;52.378;13.404;2022-11-20T08:36:14;23.23;;;10.83;;
18879;SDS011;9572;52.378;13.404;2022-11-20T08:38:41;19.90;;;11.37;;
18879;SDS011;9572;52.378;13.404;2022-11-20T08:41:13;19.53;;;10.63;;
18879;SDS011;9572;52.378;13.404;2022-11-20T08:43:50;23.37;;;12.37;;
18879;SDS011;9572;52.378;13.404;2022-11-20T08:46:18;20.07;;;11.30;;
18879;SDS011;9572;52.378;13.404;2022-11-20T08:48:45;18.67;;;10.40;;
18879;SDS011;9572;52.378;13.404;2022-11-20T08:51:12;20.97;;;11.00;;
18879;SDS011;9572;52.378;13.404;2022-11-20T08:53:40;21.30;;;13.85;;
18879;SDS011;9572;52.378;13.404;2022-11-20T08:56:07;21.77;;;11.80;;
18879;SDS011;9572;52.378;13.404;2022-11-20T08:58:36;20.33;;;11.03;;
18879;SDS011;9572;52.378;13.404;2022-11-20T09:01:04;22.07;;;11.43;;
18879;SDS011;9572;52.378;13.404;2022-11-20T09:03:31;21.43;;;10.67;;
18879;SDS011;9572;52.378;13.404;2022-11-20T09:05:58;19.27;;;11.10;;
18879;SDS011;9572;52.378;13.404;2022-11-20T09:08:26;20.63;;;11.40;;
18879;SDS011;9572;52.378;13.404;2022-11-20T09:10:54;18.33;;;10.33;;
18879;SDS011;9572;52.378;13.404;2022-11-20T09:13:23;23.17;;;12.10;;
18879;SDS011;9572;52.378;13.404;2022-11-20T09:15:53;22.53;;;11.53;;
18879;SDS011;9572;52.378;13.404;2022-11-20T09:18:21;22.53;;;11.63;;
18879;SDS011;9572;52.378;13.404;2022-11-20T09:20:48;21.27;;;11.57;;
18879;SDS011;9572;52.378;13.404;2022-11-20T09:23:15;23.10;;;12.10;;
18879;SDS011;9572;52.378;13.404;2022-11-20T09:25:43;28.07;;;12.40;;
18879;SDS011;9572;52.378;13.404;2022-11-20T09:28:10;26.23;;;12.20;;
18879;SDS011;9572;52.378;13.404;2022-11-20T09:30:37;23.53;;;13.60;;
18879;SDS011;9572;52.378;13.404;2022-11-20T09:33:05;24.13;;;12.97;;
18879;SDS011;9572;52.378;13.404;2022-11-20T09:35:32;21.63;;;12.07;;
18879;SDS011;9572;52.378;13.404;2022-11-20T09:38:04;25.80;;;12.77;;
18879;SDS011;9572;52.378;13.404;2022-11-20T09:40:31;26.00;;;13.07;;
18879;SDS011;9572;52.378;13.404;2022-11-20T09:43:01;23.00;;;12.60;;
18879;SDS011;9572;52.378;13.404;2022-11-20T09:45:38;24.07;;;12.87;;
18879;SDS011;9572;52.378;13.404;2022-11-20T09:48:24;22.40;;;11.93;;
18879;SDS011;9572;52.378;13.404;2022-11-20T09:51:03;22.57;;;12.13;;
18879;SDS011;9572;52.378;13.404;2022-11-20T09:53:42;22.33;;;12.53;;
18879;SDS011;9572;52.378;13.404;2022-11-20T09:56:19;22.83;;;11.93;;
18879;SDS011;9572;52.378;13.404;2022-11-20T09:58:47;21.30;;;11.63;;
18879;SDS011;9572;52.378;13.404;2022-11-20T10:01:17;22.23;;;12.00;;
18879;SDS011;9572;52.378;13.404;2022-11-20T10:03:51;22.13;;;12.17;;
18879;SDS011;9572;52.378;13.404;2022-11-20T10:06:24;22.87;;;12.37;;
18879;SDS011;9572;52.378;13.404;2022-11-20T10:09:00;25.20;;;13.10;;
18879;SDS011;9572;52.378;13.404;2022-11-20T10:11:34;21.83;;;12.33;;
18879;SDS011;9572;52.378;13.404;2022-11-20T10:14:10;26.73;;;13.17;;
18879;SDS011;9572;52.378;13.404;2022-11-20T10:16:48;22.37;;;12.63;;
18879;SDS011;9572;52.378;13.404;2022-11-20T10:19:28;22.27;;;11.27;;
18879;SDS011;9572;52.378;13.404;2022-11-20T10:22:07;23.13;;;12.37;;
18879;SDS011;9572;52.378;13.404;2022-11-20T10:24:44;24.80;;;12.40;;
18879;SDS011;9572;52.378;13.404;2022-11-20T10:27:34;23.93;;;12.07;;
18879;SDS011;9572;52.378;13.404;2022-11-20T10:30:26;32.00;;;15.10;;
18879;SDS011;9572;52.378;13.404;2022-11-20T10:32:56;29.30;;;15.60;;
18879;SDS011;9572;52.378;13.404;2022-11-20T10:35:33;25.03;;;13.90;;
18879;SDS011;9572;52.378;13.404;2022-11-20T10:38:05;25.67;;;16.30;;
18879;SDS011;9572;52.378;13.404;2022-11-20T10:40:39;23.73;;;13.97;;
18879;SDS011;9572;52.378;13.404;2022-11-20T10:43:10;22.17;;;13.10;;
18879;SDS011;9572;52.378;13.404;2022-11-20T10:45:44;20.13;;;12.03;;
18879;SDS011;9572;52.378;13.404;2022-11-20T10:48:16;23.90;;;12.73;;
18879;SDS011;9572;52.378;13.404;2022-11-20T10:51:03;21.87;;;12.03;;
18879;SDS011;9572;52.378;13.404;2022-11-20T10:53:51;23.97;;;12.23;;
18879;SDS011;9572;52.378;13.404;2022-11-20T10:56:24;24.13;;;13.03;;
18879;SDS011;9572;52.378;13.404;2022-11-20T10:59:11;24.17;;;12.27;;
18879;SDS011;9572;52.378;13.404;2022-11-20T11:02:14;23.97;;;13.30;;
18879;SDS011;9572;52.378;13.404;2022-11-20T11:04:46;19.93;;;11.83;;
18879;SDS011;9572;52.378;13.404;2022-11-20T11:07:16;23.30;;;12.63;;
18879;SDS011;9572;52.378;13.404;2022-11-20T11:09:48;23.30;;;12.97;;
18879;SDS011;9572;52.378;13.404;2022-11-20T11:12:16;22.10;;;12.40;;
18879;SDS011;9572;52.378;13.404;2022-11-20T11:14:46;24.07;;;12.27;;
18879;SDS011;9572;52.378;13.404;2022-11-20T11:17:20;21.27;;;12.03;;
18879;SDS011;9572;52.378;13.404;2022-11-20T11:20:00;21.40;;;11.40;;
18879;SDS011;9572;52.378;13.404;2022-11-20T11:22:39;20.57;;;11.33;;
18879;SDS011;9572;52.378;13.404;2022-11-20T11:25:12;23.07;;;12.63;;
18879;SDS011;9572;52.378;13.404;2022-11-20T11:27:50;27.07;;;13.30;;
18879;SDS011;9572;52.378;13.404;2022-11-20T11:30:20;21.50;;;11.63;;
18879;SDS011;9572;52.378;13.404;2022-11-20T11:32:47;22.87;;;12.10;;
18879;SDS011;9572;52.378;13.404;2022-11-20T11:35:21;20.13;;;11.90;;
18879;SDS011;9572;52.378;13.404;2022-11-20T11:37:52;24.67;;;13.53;;
18879;SDS011;9572;52.378;13.404;2022-11-20T11:40:21;22.40;;;12.33;;
18879;SDS011;9572;52.378;13.404;2022-11-20T11:42:54;20.60;;;11.93;;
18879;SDS011;9572;52.378;13.404;2022-11-20T11:45:23;23.43;;;12.43;;
18879;SDS011;9572;52.378;13.404;2022-11-20T11:47:51;22.30;;;12.00;;
18879;SDS011;9572;52.378;13.404;2022-11-20T11:50:21;24.23;;;12.50;;
18879;SDS011;9572;52.378;13.404;2022-11-20T11:52:54;23.53;;;11.70;;
18879;SDS011;9572;52.378;13.404;2022-11-20T11:55:32;22.87;;;12.67;;
18879;SDS011;9572;52.378;13.404;2022-11-20T11:58:09;23.30;;;13.23;;
18879;SDS011;9572;52.378;13.404;2022-11-20T12:00:41;21.77;;;12.50;;
18879;SDS011;9572;52.378;13.404;2022-11-20T12:03:15;24.07;;;12.70;;
18879;SDS011;9572;52.378;13.404;2022-11-20T12:05:50;22.47;;;12.40;;
18879;SDS011;9572;52.378;13.404;2022-11-20T12:08:26;24.60;;;12.20;;
18879;SDS011;9572;52.378;13.404;2022-11-20T12:11:03;20.83;;;11.70;;
18879;SDS011;9572;52.378;13.404;2022-11-20T12:13:40;23.97;;;11.80;;
18879;SDS011;9572;52.378;13.404;2022-11-20T12:16:17;22.70;;;11.90;;
18879;SDS011;9572;52.378;13.404;2022-11-20T12:18:46;20.13;;;11.47;;
18879;SDS011;9572;52.378;13.404;2022-11-20T12:21:23;17.73;;;10.47;;
18879;SDS011;9572;52.378;13.404;2022-11-20T12:24:04;20.17;;;10.33;;
18879;SDS011;9572;52.378;13.404;2022-11-20T12:26:57;14.47;;;8.37;;
18879;SDS011;9572;52.378;13.404;2022-11-20T12:29:34;16.90;;;7.30;;
18879;SDS011;9572;52.378;13.404;2022-11-20T12:32:17;14.17;;;7.80;;
18879;SDS011;9572;52.378;13.404;2022-11-20T12:35:05;13.57;;;7.67;;
18879;SDS011;9572;52.378;13.404;2022-11-20T12:37:45;15.00;;;8.00;;
18879;SDS011;9572;52.378;13.404;2022-11-20T12:40:21;12.17;;;7.07;;
18879;SDS011;9572;52.378;13.404;2022-11-20T12:42:57;15.47;;;8.37;;
18879;SDS011;9572;52.378;13.404;2022-11-20T12:46:09;14.23;;;8.07;;
18879;SDS011;9572;52.378;13.404;2022-11-20T12:48:59;11.00;;;6.47;;
18879;SDS011;9572;52.378;13.404;2022-11-20T12:55:03;14.40;;;6.83;;
18879;SDS011;9572;52.378;13.404;2022-11-20T12:57:42;12.03;;;6.63;;
18879;SDS011;9572;52.378;13.404;2022-11-20T13:00:17;15.53;;;7.67;;
18879;SDS011;9572;52.378;13.404;2022-11-20T13:05:55;11.13;;;6.60;;
18879;SDS011;9572;52.378;13.404;2022-11-20T13:08:28;9.70;;;6.20;;
18879;SDS011;9572;52.378;13.404;2022-11-20T13:11:00;10.63;;;5.73;;
18879;SDS011;9572;52.378;13.404;2022-11-20T13:13:39;11.00;;;6.27;;
18879;SDS011;9572;52.378;13.404;2022-11-20T13:16:14;12.23;;;6.20;;
18879;SDS011;9572;52.378;13.404;2022-11-20T13:18:45;10.13;;;5.67;;
18879;SDS011;9572;52.378;13.404;2022-11-20T13:21:16;12.57;;;6.70;;
18879;SDS011;9572;52.378;13.404;2022-11-20T13:23:44;10.63;;;6.27;;
18879;SDS011;9572;52.378;13.404;2022-11-20T13:26:16;11.47;;;6.77;;
18879;SDS011;9572;52.378;13.404;2022-11-20T13:28:46;11.60;;;6.40;;
18879;SDS011;9572;52.378;13.404;2022-11-20T13:31:29;14.95;;;7.78;;
18879;SDS011;9572;52.378;13.404;2022-11-20T13:33:58;16.40;;;7.17;;
18879;SDS011;9572;52.378;13.404;2022-11-20T13:36:28;11.23;;;6.70;;
18879;SDS011;9572;52.378;13.404;2022-11-20T13:38:57;12.13;;;7.07;;
18879;SDS011;9572;52.378;13.404;2022-11-20T13:41:26;11.27;;;6.83;;
18879;SDS011;9572;52.378;13.404;2022-11-20T13:44:04;13.83;;;7.70;;
18879;SDS011;9572;52.378;13.404;2022-11-20T13:46:52;14.47;;;7.97;;
18879;SDS011;9572;52.378;13.404;2022-11-20T13:49:21;13.07;;;7.47;;
18879;SDS011;9572;52.378;13.404;2022-11-20T13:51:56;17.80;;;7.93;;
18879;SDS011;9572;52.378;13.404;2022-11-20T13:54:39;18.07;;;8.87;;
18879;SDS011;9572;52.378;13.404;2022-11-20T13:57:37;13.63;;;7.70;;
18879;SDS011;9572;52.378;13.404;2022-11-20T14:00:26;16.33;;;8.70;;
18879;SDS011;9572;52.378;13.404;2022-11-20T14:02:59;15.07;;;8.00;;
18879;SDS011;9572;52.378;13.404;2022-11-20T14:05:34;14.90;;;7.57;;
18879;SDS011;9572;52.378;13.404;2022-11-20T14:08:03;13.90;;;7.97;;
18879;SDS011;9572;52.378;13.404;2022-11-20T14:10:32;12.97;;;7.07;;
18879;SDS011;9572;52.378;13.404;2022-11-20T14:13:09;14.83;;;7.17;;
18879;SDS011;9572;52.378;13.404;2022-11-20T14:15:38;15.20;;;7.37;;
18879;SDS011;9572;52.378;13.404;2022-11-20T14:18:13;15.47;;;8.00;;
18879;SDS011;9572;52.378;13.404;2022-11-20T14:20:41;15.23;;;8.70;;
18879;SDS011;9572;52.378;13.404;2022-11-20T14:23:10;15.90;;;8.00;;
18879;SDS011;9572;52.378;13.404;2022-11-20T14:25:37;13.80;;;7.83;;
18879;SDS011;9572;52.378;13.404;2022-11-20T14:28:17;14.07;;;8.00;;
18879;SDS011;9572;52.378;13.404;2022-11-20T14:30:52;13.57;;;7.43;;
18879;SDS011;9572;52.378;13.404;2022-11-20T14:33:20;13.80;;;7.67;;
18879;SDS011;9572;52.378;13.404;2022-11-20T14:35:50;16.40;;;8.20;;
18879;SDS011;9572;52.378;13.404;2022-11-20T14:38:19;16.73;;;7.73;;
18879;SDS011;9572;52.378;13.404;2022-11-20T14:40:50;16.13;;;9.17;;
18879;SDS011;9572;52.378;13.404;2022-11-20T14:43:18;15.07;;;8.43;;
18879;SDS011;9572;52.378;13.404;2022-11-20T14:45:52;16.87;;;8.43;;
18879;SDS011;9572;52.378;13.404;2022-11-20T14:48:27;14.73;;;8.20;;
18879;SDS011;9572;52.378;13.404;2022-11-20T14:51:03;15.43;;;9.10;;